createdAt,value
2018-07-24T00:01:34.241Z,20.18
2018-07-24T00:04:02.488Z,20.18
2018-07-24T00:06:30.684Z,20.10
2018-07-24T00:08:58.892Z,19.99
2018-07-24T00:11:27.080Z,20.01
2018-07-24T00:13:55.268Z,19.88
2018-07-24T00:16:23.520Z,19.92
2018-07-24T00:18:51.741Z,19.85
2018-07-24T00:21:19.917Z,19.80
2018-07-24T00:23:48.162Z,19.81
2018-07-24T00:26:16.333Z,19.65
2018-07-24T00:28:44.519Z,19.78
2018-07-24T00:31:12.721Z,19.66
2018-07-24T00:33:40.963Z,19.68
2018-07-24T00:36:09.143Z,19.60
2018-07-24T00:38:37.321Z,19.69
2018-07-24T00:41:05.588Z,19.68
2018-07-24T00:43:33.767Z,19.60
2018-07-24T00:46:01.933Z,19.49
2018-07-24T00:48:30.097Z,19.42
2018-07-24T00:50:58.616Z,19.44
2018-07-24T00:53:26.914Z,19.41
2018-07-24T00:55:55.254Z,19.24
2018-07-24T00:58:23.444Z,19.19
2018-07-24T01:00:51.621Z,19.11
2018-07-24T01:03:19.814Z,19.09
2018-07-24T01:05:48.012Z,19.12
2018-07-24T01:08:16.180Z,18.96
2018-07-24T01:10:44.380Z,19.00
2018-07-24T01:13:12.668Z,19.08
2018-07-24T01:15:40.942Z,18.98
2018-07-24T01:18:09.108Z,18.94
2018-07-24T01:20:37.329Z,18.95
2018-07-24T01:23:05.671Z,18.63
2018-07-24T01:25:33.840Z,18.82
2018-07-24T01:28:02.022Z,18.70
2018-07-24T01:30:30.198Z,18.88
2018-07-24T01:32:58.396Z,18.66
2018-07-24T01:35:26.649Z,18.69
2018-07-24T01:37:54.833Z,18.73
2018-07-24T01:40:23.006Z,18.70
2018-07-24T01:42:51.237Z,18.55
2018-07-24T01:45:19.413Z,18.45
2018-07-24T01:47:47.593Z,18.63
2018-07-24T01:50:15.821Z,18.56
2018-07-24T01:52:44.093Z,18.30
2018-07-24T01:55:12.261Z,18.20
2018-07-24T01:57:40.445Z,18.22
2018-07-24T02:00:13.401Z,18.08
2018-07-24T02:02:41.601Z,18.24
2018-07-24T02:05:09.872Z,18.30
2018-07-24T02:07:38.050Z,18.33
2018-07-24T02:10:06.404Z,18.19
2018-07-24T02:12:34.601Z,18.07
2018-07-24T02:15:02.778Z,18.09
2018-07-24T02:17:30.967Z,18.10
2018-07-24T02:19:59.173Z,18.01
2018-07-24T02:22:27.336Z,18.03
2018-07-24T02:24:55.525Z,18.06
2018-07-24T02:27:23.714Z,17.92
2018-07-24T02:29:51.880Z,18.09
2018-07-24T02:32:20.103Z,18.08
2018-07-24T02:34:48.340Z,18.04
2018-07-24T02:37:16.517Z,18.16
2018-07-24T02:39:44.714Z,18.02
2018-07-24T02:42:12.885Z,18.10
2018-07-24T02:44:41.054Z,18.06
2018-07-24T02:47:09.322Z,17.98
2018-07-24T02:49:37.590Z,17.88
2018-07-24T02:52:05.866Z,17.93
2018-07-24T02:54:34.047Z,17.85
2018-07-24T02:57:02.246Z,17.89
2018-07-24T02:59:30.409Z,17.72
2018-07-24T03:01:58.586Z,17.79
2018-07-24T03:04:26.842Z,17.75
2018-07-24T03:06:55.071Z,17.79
2018-07-24T03:09:23.310Z,17.62
2018-07-24T03:11:52.018Z,17.55
2018-07-24T03:14:20.161Z,17.65
2018-07-24T03:16:48.445Z,17.51
2018-07-24T03:19:16.621Z,17.50
2018-07-24T03:21:44.873Z,17.51
2018-07-24T03:24:13.067Z,17.47
2018-07-24T03:26:41.385Z,17.47
2018-07-24T03:29:09.558Z,17.43
2018-07-24T03:31:37.808Z,17.66
2018-07-24T03:34:05.973Z,17.58
2018-07-24T03:36:34.226Z,17.50
2018-07-24T03:39:02.441Z,17.37
2018-07-24T03:41:30.677Z,17.38
2018-07-24T03:43:58.846Z,17.41
2018-07-24T03:46:27.020Z,17.34
2018-07-24T03:48:55.212Z,17.50
2018-07-24T03:51:23.364Z,17.36
2018-07-24T03:53:51.759Z,17.50
2018-07-24T03:56:19.932Z,17.57
2018-07-24T03:58:48.110Z,17.75
2018-07-24T04:01:16.362Z,17.76
2018-07-24T04:03:44.581Z,17.80
2018-07-24T04:06:12.751Z,17.76
2018-07-24T04:08:40.933Z,17.70
2018-07-24T04:11:09.150Z,17.92
2018-07-24T04:13:37.466Z,17.88
2018-07-24T04:16:05.655Z,18.04
2018-07-24T04:18:38.295Z,18.04
2018-07-24T04:21:06.617Z,17.89
2018-07-24T04:23:34.833Z,17.76
2018-07-24T04:26:03.029Z,18.11
2018-07-24T04:28:31.217Z,18.00
2018-07-24T04:30:59.491Z,18.33
2018-07-24T04:33:27.653Z,18.32
2018-07-24T04:35:55.865Z,18.14
2018-07-24T04:38:24.035Z,18.18
2018-07-24T04:40:52.269Z,18.08
2018-07-24T04:43:20.569Z,18.51
2018-07-24T04:45:48.798Z,18.43
2018-07-24T04:48:17.263Z,18.37
2018-07-24T04:50:45.528Z,17.79
2018-07-24T04:53:13.762Z,17.82
2018-07-24T04:55:42.006Z,18.06
2018-07-24T04:58:10.240Z,18.19
2018-07-24T05:00:38.474Z,18.48
2018-07-24T05:03:06.892Z,18.76
2018-07-24T05:05:35.106Z,18.61
2018-07-24T05:08:03.319Z,18.83
2018-07-24T05:10:31.919Z,18.99
2018-07-24T05:13:00.112Z,19.03
2018-07-24T05:15:28.293Z,19.32
2018-07-24T05:17:57.106Z,19.40
2018-07-24T05:20:25.481Z,18.74
2018-07-24T05:22:54.452Z,18.90
2018-07-24T05:25:22.619Z,19.20
2018-07-24T05:27:50.893Z,19.43
2018-07-24T05:30:19.199Z,20.04
2018-07-24T05:32:47.585Z,20.15
2018-07-24T05:35:15.882Z,20.06
2018-07-24T05:37:44.187Z,20.29
2018-07-24T05:40:12.465Z,20.49
2018-07-24T05:42:40.753Z,20.64
2018-07-24T05:45:08.936Z,20.69
2018-07-24T05:47:37.109Z,20.58
2018-07-24T05:50:05.566Z,20.30
2018-07-24T05:52:33.762Z,20.44
2018-07-24T05:55:01.995Z,20.14
2018-07-24T05:57:30.206Z,20.47
2018-07-24T05:59:58.381Z,20.55
2018-07-24T06:02:26.570Z,20.38
2018-07-24T06:04:55.114Z,20.32
2018-07-24T06:07:23.401Z,20.52
2018-07-24T06:09:51.884Z,21.20
2018-07-24T06:12:20.190Z,21.14
2018-07-24T06:14:48.418Z,20.54
2018-07-24T06:17:16.587Z,20.63
2018-07-24T06:19:44.886Z,20.85
2018-07-24T06:22:13.140Z,21.07
2018-07-24T06:24:41.417Z,20.87
2018-07-24T06:27:09.871Z,20.50
2018-07-24T06:29:38.094Z,20.25
2018-07-24T06:32:06.285Z,20.64
2018-07-24T06:34:34.477Z,21.21
2018-07-24T06:37:02.702Z,21.42
2018-07-24T06:39:30.984Z,21.17
2018-07-24T06:41:59.255Z,21.22
2018-07-24T06:44:27.521Z,21.18
2018-07-24T06:46:55.658Z,21.68
2018-07-24T06:49:23.888Z,21.69
2018-07-24T06:51:52.387Z,21.62
2018-07-24T06:54:20.550Z,22.16
2018-07-24T06:56:48.766Z,21.93
2018-07-24T06:59:16.941Z,22.57
2018-07-24T07:01:45.149Z,22.73
2018-07-24T07:04:13.387Z,22.96
2018-07-24T07:06:41.617Z,22.88
2018-07-24T07:09:09.889Z,22.79
2018-07-24T07:11:40.224Z,23.25
2018-07-24T07:14:08.437Z,23.15
2018-07-24T07:16:36.621Z,22.82
2018-07-24T07:19:04.965Z,23.13
2018-07-24T07:21:33.132Z,23.24
2018-07-24T07:24:01.355Z,22.68
2018-07-24T07:26:29.564Z,22.86
2018-07-24T07:28:57.863Z,23.86
2018-07-24T07:31:26.098Z,23.74
2018-07-24T07:33:54.303Z,23.75
2018-07-24T07:36:22.479Z,24.24
2018-07-24T07:38:51.208Z,23.84
2018-07-24T07:41:19.398Z,24.39
2018-07-24T07:43:47.618Z,23.90
2018-07-24T07:46:15.862Z,23.76
2018-07-24T07:48:44.160Z,24.47
2018-07-24T07:51:12.326Z,24.88
2018-07-24T07:53:40.514Z,24.59
2018-07-24T07:56:08.778Z,23.67
2018-07-24T07:58:37.040Z,24.06
2018-07-24T08:01:05.261Z,24.24
2018-07-24T08:03:33.518Z,24.30
2018-07-24T08:06:01.772Z,25.13
2018-07-24T08:08:29.953Z,23.42
2018-07-24T08:10:58.132Z,24.77
2018-07-24T08:13:26.306Z,25.41
2018-07-24T08:15:54.620Z,25.61
2018-07-24T08:18:22.873Z,25.34
2018-07-24T08:20:51.864Z,24.96
2018-07-24T08:23:20.116Z,25.71
2018-07-24T08:25:48.290Z,26.21
2018-07-24T08:28:16.636Z,25.85
2018-07-24T08:30:44.774Z,25.40
2018-07-24T08:33:12.977Z,25.28
2018-07-24T08:35:41.186Z,25.85
2018-07-24T08:38:09.361Z,26.01
2018-07-24T08:40:37.545Z,26.00
2018-07-24T08:43:05.897Z,26.37
2018-07-24T08:45:34.085Z,26.25
2018-07-24T08:48:02.276Z,25.79
2018-07-24T08:50:31.473Z,26.80
2018-07-24T08:53:00.026Z,26.74
2018-07-24T08:55:28.290Z,27.17
2018-07-24T08:57:56.391Z,26.35
2018-07-24T09:00:24.971Z,26.62
2018-07-24T09:02:53.315Z,26.61
2018-07-24T09:05:21.532Z,27.03
2018-07-24T09:07:49.715Z,27.59
2018-07-24T09:10:18.009Z,26.09
2018-07-24T09:12:46.176Z,27.52
2018-07-24T09:15:14.422Z,27.89
2018-07-24T09:17:42.608Z,28.36
2018-07-24T09:20:10.885Z,28.40
2018-07-24T09:22:39.119Z,26.32
2018-07-24T09:25:07.378Z,26.58
2018-07-24T09:27:35.614Z,27.45
2018-07-24T09:30:03.918Z,28.05
2018-07-24T09:32:32.206Z,28.81
2018-07-24T09:35:00.411Z,27.76
2018-07-24T09:37:28.805Z,28.26
2018-07-24T09:39:57.038Z,28.56
2018-07-24T09:42:25.214Z,28.64
2018-07-24T09:44:53.445Z,27.88
2018-07-24T09:47:21.746Z,28.58
2018-07-24T09:49:49.935Z,27.92
2018-07-24T09:52:18.535Z,29.11
2018-07-24T09:54:46.763Z,29.48
2018-07-24T09:57:15.024Z,29.33
2018-07-24T09:59:43.221Z,28.98
2018-07-24T10:02:11.844Z,29.68
2018-07-24T10:04:39.979Z,30.50
2018-07-24T10:07:09.204Z,30.60
2018-07-24T10:09:37.439Z,29.90
2018-07-24T10:12:05.651Z,30.15
2018-07-24T10:14:33.861Z,28.75
2018-07-24T10:17:02.158Z,29.62
2018-07-24T10:19:30.350Z,29.89
2018-07-24T10:21:58.930Z,30.51
2018-07-24T10:24:27.280Z,30.17
2018-07-24T10:26:55.386Z,28.92
2018-07-24T10:29:23.634Z,30.01
2018-07-24T10:31:51.916Z,29.91
2018-07-24T10:34:20.081Z,30.10
2018-07-24T10:36:48.338Z,30.43
2018-07-24T10:39:16.577Z,29.70
2018-07-24T10:41:44.809Z,30.53
2018-07-24T10:44:13.090Z,31.44
2018-07-24T10:46:42.645Z,32.39
2018-07-24T10:49:10.859Z,32.17
2018-07-24T10:51:39.057Z,32.04
2018-07-24T10:54:07.339Z,32.03
2018-07-24T10:56:35.619Z,31.87
2018-07-24T10:59:03.879Z,32.54
2018-07-24T11:01:32.389Z,32.22
2018-07-24T11:04:00.651Z,32.01
2018-07-24T11:06:28.937Z,32.40
2018-07-24T11:08:57.340Z,32.48
2018-07-24T11:11:25.606Z,32.83
2018-07-24T11:13:53.873Z,33.18
2018-07-24T11:16:22.078Z,33.83
2018-07-24T11:18:50.478Z,35.02
2018-07-24T11:21:18.792Z,34.33
2018-07-24T11:23:46.987Z,36.87
2018-07-24T11:26:15.224Z,40.32
2018-07-24T11:28:43.481Z,40.77
2018-07-24T11:31:11.877Z,44.18
2018-07-24T11:33:40.145Z,42.60
2018-07-24T11:36:08.372Z,41.10
2018-07-24T11:38:36.766Z,41.17
2018-07-24T11:41:05.351Z,43.43
2018-07-24T11:43:33.527Z,43.67
2018-07-24T11:46:01.699Z,39.33
2018-07-24T11:48:29.913Z,40.89
2018-07-24T11:50:58.091Z,43.98
2018-07-24T11:53:26.273Z,43.46
2018-07-24T11:55:54.526Z,45.51
2018-07-24T11:58:22.912Z,45.76
2018-07-24T12:00:51.211Z,48.57
2018-07-24T12:03:19.386Z,41.37
2018-07-24T12:05:47.621Z,47.66
2018-07-24T12:08:15.839Z,48.95
2018-07-24T12:10:44.007Z,47.73
2018-07-24T12:13:12.252Z,46.66
2018-07-24T12:15:40.600Z,37.01
2018-07-24T12:18:08.750Z,49.51
2018-07-24T12:20:36.972Z,46.25
2018-07-24T12:23:05.174Z,50.78
2018-07-24T12:25:33.420Z,50.35
2018-07-24T12:28:01.583Z,50.23
2018-07-24T12:30:29.814Z,47.36
2018-07-24T12:32:57.984Z,51.54
2018-07-24T12:35:26.226Z,52.83
2018-07-24T12:37:54.542Z,50.88
2018-07-24T12:40:22.714Z,53.40
2018-07-24T12:42:50.874Z,52.96
2018-07-24T12:45:19.046Z,46.06
2018-07-24T12:47:47.295Z,53.34
2018-07-24T12:50:15.578Z,51.98
2018-07-24T12:52:43.770Z,56.09
2018-07-24T12:55:12.022Z,54.35
2018-07-24T12:57:40.181Z,54.28
2018-07-24T13:00:08.349Z,56.06
2018-07-24T13:02:36.647Z,56.23
2018-07-24T13:05:04.832Z,53.19
2018-07-24T13:07:33.127Z,53.04
2018-07-24T13:10:01.421Z,54.08
2018-07-24T13:12:29.453Z,56.52
2018-07-24T13:14:57.633Z,54.46
2018-07-24T13:17:25.799Z,57.80
2018-07-24T13:19:55.007Z,54.71
2018-07-24T13:22:31.827Z,56.35
2018-07-24T13:24:59.981Z,54.69
2018-07-24T13:27:28.173Z,55.19
2018-07-24T13:29:56.396Z,56.73
2018-07-24T13:32:24.571Z,56.67
2018-07-24T13:34:52.775Z,53.61
2018-07-24T13:37:21.072Z,51.88
2018-07-24T13:39:49.230Z,54.05
2018-07-24T13:42:17.387Z,49.15
2018-07-24T13:44:45.645Z,53.80
2018-07-24T13:47:13.989Z,49.18
2018-07-24T13:49:42.741Z,54.38
2018-07-24T13:52:10.990Z,51.03
2018-07-24T13:54:39.149Z,55.02
2018-07-24T13:57:07.605Z,53.50
2018-07-24T13:59:35.757Z,54.31
2018-07-24T14:02:03.987Z,51.28
2018-07-24T14:04:32.274Z,49.07
2018-07-24T14:07:00.552Z,50.45
2018-07-24T14:09:28.767Z,50.46
2018-07-24T14:11:58.247Z,50.65
2018-07-24T14:14:26.497Z,55.58
2018-07-24T14:16:54.670Z,50.56
2018-07-24T14:19:22.941Z,51.45
2018-07-24T14:21:51.228Z,50.78
2018-07-24T14:24:19.315Z,50.91
2018-07-24T14:26:47.526Z,56.18
2018-07-24T14:29:15.762Z,54.79
2018-07-24T14:31:43.930Z,52.74
2018-07-24T14:34:12.095Z,53.55
2018-07-24T14:36:40.395Z,54.32
2018-07-24T14:39:10.630Z,53.29
2018-07-24T14:41:38.874Z,53.14
2018-07-24T14:44:07.298Z,51.47
2018-07-24T14:46:36.147Z,52.53
2018-07-24T14:49:04.434Z,55.02
2018-07-24T14:51:32.607Z,54.10
2018-07-24T14:54:00.848Z,52.97
2018-07-24T14:56:29.030Z,52.42
2018-07-24T14:58:57.197Z,51.69
2018-07-24T15:01:25.391Z,52.89
2018-07-24T15:03:53.554Z,49.07
2018-07-24T15:06:21.889Z,49.02
2018-07-24T15:08:50.038Z,49.87
2018-07-24T15:11:18.202Z,49.45
2018-07-24T15:13:46.462Z,48.03
2018-07-24T15:16:14.751Z,46.96
2018-07-24T15:18:42.958Z,47.97
2018-07-24T15:21:11.176Z,42.34
2018-07-24T15:23:39.601Z,41.40
2018-07-24T15:26:08.050Z,40.25
2018-07-24T15:28:36.316Z,40.96
2018-07-24T15:31:04.578Z,40.02
2018-07-24T15:33:32.865Z,39.24
2018-07-24T15:36:01.069Z,38.03
2018-07-24T15:38:29.241Z,37.51
2018-07-24T15:40:58.429Z,35.74
2018-07-24T15:43:26.693Z,37.23
2018-07-24T15:45:55.058Z,37.28
2018-07-24T15:48:23.232Z,37.24
2018-07-24T15:50:52.343Z,36.35
2018-07-24T15:53:20.620Z,36.66
2018-07-24T15:55:48.923Z,35.42
2018-07-24T15:58:17.208Z,36.01
2018-07-24T16:00:45.438Z,36.57
2018-07-24T16:03:14.068Z,37.47
2018-07-24T16:05:45.282Z,38.89
2018-07-24T16:08:13.694Z,41.89
2018-07-24T16:10:43.618Z,42.10
2018-07-24T16:13:11.823Z,37.41
2018-07-24T16:15:40.217Z,35.68
2018-07-24T16:18:09.072Z,34.90
2018-07-24T16:20:37.274Z,35.09
2018-07-24T16:23:05.558Z,34.80
2018-07-24T16:25:33.853Z,35.14
2018-07-24T16:28:07.352Z,34.02
2018-07-24T16:30:35.553Z,33.92
2018-07-24T16:33:03.808Z,33.58
2018-07-24T16:35:31.989Z,33.88
2018-07-24T16:38:00.171Z,33.89
2018-07-24T16:40:28.345Z,34.10
2018-07-24T16:42:56.625Z,33.88
2018-07-24T16:45:25.852Z,33.06
2018-07-24T16:47:54.055Z,33.48
2018-07-24T16:50:22.346Z,32.89
2018-07-24T16:52:50.533Z,32.97
2018-07-24T16:55:18.716Z,33.49
2018-07-24T16:57:47.096Z,32.64
2018-07-24T17:00:15.781Z,32.79
2018-07-24T17:02:44.067Z,33.06
2018-07-24T17:05:12.248Z,33.04
2018-07-24T17:07:40.654Z,32.62
2018-07-24T17:10:08.974Z,32.38
2018-07-24T17:12:37.582Z,32.44
2018-07-24T17:15:06.434Z,32.48
2018-07-24T17:17:34.666Z,32.31
2018-07-24T17:20:03.027Z,32.26
2018-07-24T17:22:31.362Z,32.24
2018-07-24T17:24:59.738Z,32.31
2018-07-24T17:27:28.027Z,32.07
2018-07-24T17:29:56.195Z,32.14
2018-07-24T17:32:24.453Z,32.02
2018-07-24T17:34:52.725Z,32.04
2018-07-24T17:37:20.925Z,31.94
2018-07-24T17:39:49.163Z,31.65
2018-07-24T17:42:17.590Z,31.90
2018-07-24T17:44:45.756Z,31.53
2018-07-24T17:47:20.475Z,31.47
2018-07-24T17:49:48.779Z,31.61
2018-07-24T17:52:17.091Z,31.32
2018-07-24T17:54:45.446Z,31.45
2018-07-24T17:57:13.658Z,31.08
2018-07-24T17:59:42.031Z,31.01
2018-07-24T18:02:10.193Z,30.97
2018-07-24T18:04:38.700Z,31.00
2018-07-24T18:07:06.956Z,30.88
2018-07-24T18:09:35.278Z,30.84
2018-07-24T18:12:03.700Z,30.70
2018-07-24T18:14:31.893Z,30.72
2018-07-24T18:17:00.202Z,30.56
2018-07-24T18:19:28.470Z,30.42
2018-07-24T18:21:56.722Z,30.23
2018-07-24T18:24:24.976Z,30.21
2018-07-24T18:26:53.851Z,30.15
2018-07-24T18:29:22.724Z,29.97
2018-07-24T18:31:50.931Z,29.82
2018-07-24T18:34:19.187Z,29.73
2018-07-24T18:36:47.495Z,29.75
2018-07-24T18:39:15.669Z,29.55
2018-07-24T18:41:43.843Z,29.46
2018-07-24T18:44:12.033Z,29.39
2018-07-24T18:46:40.313Z,29.14
2018-07-24T18:49:08.509Z,28.96
2018-07-24T18:51:36.677Z,28.80
2018-07-24T18:54:05.269Z,28.70
2018-07-24T18:56:33.509Z,28.54
2018-07-24T18:59:01.827Z,28.44
2018-07-24T19:01:30.029Z,28.39
2018-07-24T19:03:58.438Z,28.32
2018-07-24T19:06:26.731Z,28.26
2018-07-24T19:08:54.939Z,28.09
2018-07-24T19:11:23.118Z,28.03
2018-07-24T19:13:51.346Z,28.05
2018-07-24T19:16:19.928Z,28.06
2018-07-24T19:18:48.108Z,27.94
2018-07-24T19:21:16.366Z,27.83
2018-07-24T19:23:44.650Z,27.73
2018-07-24T19:26:13.650Z,27.63
2018-07-24T19:28:41.842Z,27.48
2018-07-24T19:31:10.134Z,27.34
2018-07-24T19:33:38.366Z,27.26
2018-07-24T19:36:06.767Z,27.08
2018-07-24T19:38:35.158Z,26.83
2018-07-24T19:41:03.391Z,26.81
2018-07-24T19:43:31.602Z,26.75
2018-07-24T19:45:59.821Z,26.67
2018-07-24T19:48:28.034Z,26.64
2018-07-24T19:50:56.295Z,26.56
2018-07-24T19:53:25.097Z,26.38
2018-07-24T19:55:53.298Z,26.37
2018-07-24T19:58:21.530Z,26.34
2018-07-24T20:00:50.030Z,26.02
2018-07-24T20:03:18.315Z,26.05
2018-07-24T20:05:46.632Z,26.02
2018-07-24T20:08:15.753Z,25.89
2018-07-24T20:10:44.035Z,25.85
2018-07-24T20:13:12.278Z,25.83
2018-07-24T20:15:40.858Z,25.81
2018-07-24T20:18:09.075Z,25.54
2018-07-24T20:20:37.348Z,25.55
2018-07-24T20:23:05.765Z,25.37
2018-07-24T20:25:34.011Z,25.38
2018-07-24T20:28:02.397Z,25.12
2018-07-24T20:30:30.680Z,25.17
2018-07-24T20:32:58.921Z,25.21
2018-07-24T20:35:27.175Z,25.07
2018-07-24T20:37:55.315Z,24.92
2018-07-24T20:40:23.481Z,24.90
2018-07-24T20:42:51.737Z,24.88
2018-07-24T20:45:19.942Z,24.82
2018-07-24T20:47:48.137Z,24.70
2018-07-24T20:50:16.341Z,24.53
2018-07-24T20:52:44.543Z,24.47
2018-07-24T20:55:12.746Z,24.62
2018-07-24T20:57:41.073Z,24.46
2018-07-24T21:00:09.376Z,24.19
2018-07-24T21:02:37.561Z,24.09
2018-07-24T21:05:05.909Z,24.13
2018-07-24T21:07:34.117Z,24.08
2018-07-24T21:10:02.357Z,23.73
2018-07-24T21:12:30.527Z,23.72
2018-07-24T21:14:58.817Z,23.69
2018-07-24T21:17:27.093Z,23.56
2018-07-24T21:19:55.277Z,23.12
2018-07-24T21:22:23.543Z,22.97
2018-07-24T21:24:51.797Z,23.09
2018-07-24T21:27:19.972Z,23.07
2018-07-24T21:29:48.200Z,22.95
2018-07-24T21:32:16.369Z,22.92
2018-07-24T21:34:44.595Z,22.75
2018-07-24T21:37:12.782Z,22.83
2018-07-24T21:39:40.968Z,22.86
2018-07-24T21:42:09.222Z,22.75
2018-07-24T21:44:37.414Z,22.82
2018-07-24T21:47:05.593Z,22.75
2018-07-24T21:49:33.801Z,22.77
2018-07-24T21:52:02.126Z,22.60
2018-07-24T21:54:30.301Z,22.57
2018-07-24T21:56:58.629Z,22.58
2018-07-24T21:59:26.873Z,22.49
2018-07-24T22:01:55.066Z,22.54
2018-07-24T22:04:23.284Z,22.32
2018-07-24T22:06:51.821Z,22.06
2018-07-24T22:09:20.004Z,22.16
2018-07-24T22:11:48.173Z,21.91
2018-07-24T22:14:16.420Z,22.14
2018-07-24T22:16:44.589Z,21.81
2018-07-24T22:19:12.859Z,21.88
2018-07-24T22:21:41.039Z,21.99
2018-07-24T22:24:09.538Z,21.77
2018-07-24T22:26:37.720Z,21.90
2018-07-24T22:29:05.978Z,21.87
2018-07-24T22:31:34.440Z,21.86
2018-07-24T22:34:02.614Z,21.79
2018-07-24T22:36:30.962Z,21.67
2018-07-24T22:38:59.172Z,21.86
2018-07-24T22:41:27.358Z,21.90
2018-07-24T22:43:55.538Z,21.77
2018-07-24T22:46:23.717Z,21.80
2018-07-24T22:48:52.121Z,21.88
2018-07-24T22:51:20.313Z,21.94
2018-07-24T22:53:48.490Z,21.85
2018-07-24T22:56:16.689Z,21.88
2018-07-24T22:58:44.877Z,21.89
2018-07-24T23:01:13.137Z,21.78
2018-07-24T23:03:41.321Z,21.60
2018-07-24T23:06:09.665Z,21.56
2018-07-24T23:08:37.873Z,21.64
2018-07-24T23:11:06.109Z,21.52
2018-07-24T23:13:34.294Z,21.29
2018-07-24T23:16:02.471Z,21.51
2018-07-24T23:18:30.664Z,21.25
2018-07-24T23:20:58.946Z,20.92
2018-07-24T23:23:27.123Z,21.05
2018-07-24T23:25:55.386Z,20.72
2018-07-24T23:28:23.576Z,20.90
2018-07-24T23:30:51.770Z,21.10
2018-07-24T23:33:19.936Z,20.98
2018-07-24T23:35:48.242Z,21.08
2018-07-24T23:38:16.408Z,20.77
2018-07-24T23:40:44.589Z,20.64
2018-07-24T23:43:12.802Z,20.39
2018-07-24T23:45:41.245Z,20.41
2018-07-24T23:48:09.470Z,20.43
2018-07-24T23:50:37.665Z,20.41
2018-07-24T23:53:05.882Z,20.59
2018-07-24T23:55:35.437Z,20.54
2018-07-24T23:58:04.322Z,20.35
